Валаам

Карта отелей и гостиниц, располагающихся рядом с аэропортом Валаам :

Валаам Республика Карелия 61° 22' 23.8404" N, 30° 57' 28.6488" E
Валаам Республика Карелия 61° 22' 23.8404" N, 30° 57' 28.6488" E
Код аэродрома ИКАО
ULPL
Код аэродрома RU
УЛПЛ
Координаты
N61.37329° E030.95796°
Превышение над уровнем моря
12
Основная полоса
06C/24C
Курс магнитный
060,1/240,1
Длина основной ВПП
24
Ширина основной ВПП
24
Покрытие основной ВПП
Твёрдое (железобетон)
Освещение ВПП
По запросу
Тип: 
Вертодром
Класс аэродрома: 
Принадлежность: 
ГА
Статус: 
Действующий
Сайт: 
www.a-group.aero
E-mail аэродрома: 
ledops@a-group.aero
Страна: 
Россия
Регион: 
Республика Карелия
Город: 
Дополнительная информация: 
Владелец ПП: ГК "А-Групп" Групповая, состоит из 5-ти однотипных ПП для вертолетов с искусственной поверхностью. Принимает ВС массой до 16,0 т. АНППП зарегистрирован в СЗМТУ ВТ ФАВТ 20 сен 2017 №СЗП3-543. Групповая ПП имеет порядковую нумерацию с севера на юг (северная №1, южная №5). Несущие поверхности построены из ж/б плит с коэфф. PCN 13/R/A/W/T.

Найти трансфер

С помощью этой формы Вы можете найти трансфер из аэропорта Валаам в город, аэропорт или вокзал:

Карта места

Javascript is required to view this map.

Погода в аэропортах:

Авиационная погода в Батуми

Регион: 
Погода METAR: 
UGSB 171830Z 05003KT 350V120 6000 SHRA SCT014 BKN028CB 18/17 Q1017 R13/29//55 NOSIG
Время наблюдения
2021-09-17T18:30:00Z
Температура C
18.0
Точка росы
17.0
Направление ветра
50
Скорость ветра (узлы)
3
Метео видимость
3.73
Явления погоды
SHRA
Условия полета
MVFR

Авиационная погода в Емельяново

Регион: 
Погода METAR: 
UNKL 171830Z 10002MPS 0150 0100S R29/0550U FG SCT001 08/08 Q1005 R29/CLRD65 NOSIG RMK QBB050 QFE729
Время наблюдения
2021-09-17T18:30:00Z
Температура C
8.0
Точка росы
8.0
Направление ветра
100
Скорость ветра (узлы)
4
Метео видимость
0.09
Явления погоды
FG
Условия полета
LIFR
Аэропорт подробнее: 

Авиационная погода в Махачкале

Регион: 
Погода METAR: 
URML 171830Z 06002MPS 9999 -RA OVC024 18/15 Q1016 R14/290060 NOSIG RMK QFE762/1016
Время наблюдения
2021-09-17T18:30:00Z
Температура C
18.0
Точка росы
15.0
Направление ветра
60
Скорость ветра (узлы)
4
Метео видимость
6.21
Явления погоды
-RA
Условия полета
MVFR
Аэропорт подробнее: 

Авиационная погода в Храброво

Регион: 
Погода METAR: 
UMKK 171830Z 08006MPS 5000 -DZ BR OVC004 11/11 Q1011 R06/19//95 NOSIG RMK QBB120 OBST OBSC QFE757/1009
Время наблюдения
2021-09-17T18:30:00Z
Температура C
11.0
Точка росы
11.0
Направление ветра
80
Скорость ветра (узлы)
12
Метео видимость
3.11
Явления погоды
-DZ BR
Условия полета
LIFR
Аэропорт подробнее: